Time;durP1;ratioP1;P1;durP2;ratioP2;P2;SDS_P1;SDS_P2;PMS_P1;PMS_P2;Temp;Humidity;BMP_temperature;BMP_pressure;BME280_temperature;BME280_humidity;BME280_pressure;Samples;Min_cycle;Max_cycle;Signal;HPM_P1;HPM_P2
2022/06/05 00:02:14;;;;;;;25.40;19.90;;;15.40;99.90;;;;;;5054504;28;20474;-74
2022/06/05 00:05:18;;;;;;;21.17;18.90;;;15.40;99.90;;;;;;5056579;28;20060;-73
2022/06/05 00:08:19;;;;;;;24.40;19.70;;;15.50;99.90;;;;;;4993212;28;20050;-74
2022/06/05 00:10:56;;;;;;;27.85;20.38;;;15.40;99.90;;;;;;4986136;28;20037;-73
2022/06/05 00:13:37;;;;;;;22.60;19.10;;;15.40;99.90;;;;;;5045209;28;20037;-73
2022/06/05 00:16:04;;;;;;;23.75;19.98;;;15.40;99.90;;;;;;5060596;28;20023;-73
2022/06/05 00:18:34;;;;;;;28.10;21.75;;;15.30;99.90;;;;;;5073827;28;20021;-74
2022/06/05 00:21:00;;;;;;;27.15;21.13;;;15.30;99.90;;;;;;5065505;28;20032;-73
2022/06/05 00:23:26;;;;;;;29.83;22.15;;;15.20;99.90;;;;;;5054011;28;20534;-78
2022/06/05 00:26:16;;;;;;;26.45;21.23;;;15.10;99.90;;;;;;5059324;28;20036;-73
2022/06/05 00:29:16;;;;;;;26.02;21.63;;;15.10;99.90;;;;;;5072557;28;20036;-73
2022/06/05 00:32:19;;;;;;;24.83;20.90;;;15.10;99.90;;;;;;5054961;28;20524;-73
2022/06/05 00:34:45;;;;;;;;;;;15.10;99.90;;;;;;5040055;28;20472;-73
2022/06/05 00:37:48;;;;;;;27.20;20.73;;;15.10;99.90;;;;;;5073715;28;19955;-73
2022/06/05 00:40:47;;;;;;;28.83;22.33;;;15.10;99.90;;;;;;5073265;28;20021;-77
2022/06/05 00:43:16;;;;;;;27.75;22.48;;;15.10;99.90;;;;;;5072299;28;20470;-78
2022/06/05 00:45:43;;;;;;;28.00;22.55;;;15.00;99.90;;;;;;5073180;28;20074;-73
2022/06/05 00:48:10;;;;;;;27.83;21.92;;;15.00;99.90;;;;;;5072943;28;20028;-74
2022/06/05 00:50:38;;;;;;;28.92;22.98;;;15.00;99.90;;;;;;5072909;28;20017;-73
2022/06/05 00:53:06;;;;;;;31.30;22.90;;;15.00;99.90;;;;;;5073295;28;20020;-79
2022/06/05 00:55:42;;;;;;;27.23;22.10;;;15.00;99.90;;;;;;5071357;28;20466;-73
2022/06/05 00:58:08;;;;;;;30.35;23.52;;;15.00;99.90;;;;;;5073466;28;20032;-78
2022/06/05 01:00:48;;;;;;;32.80;24.13;;;14.90;99.90;;;;;;5071594;28;20108;-77
2022/06/05 01:03:14;;;;;;;28.10;22.25;;;14.90;99.90;;;;;;5073252;28;20103;-73
2022/06/05 01:05:41;;;;;;;29.10;24.17;;;14.90;99.90;;;;;;5065267;28;20105;-77
2022/06/05 01:08:09;;;;;;;30.60;23.02;;;14.90;99.90;;;;;;5073465;28;20074;-77
2022/06/05 01:10:58;;;;;;;28.05;22.80;;;14.80;99.90;;;;;;5072827;28;20021;-74
2022/06/05 01:13:48;;;;;;;26.52;20.73;;;14.90;99.90;;;;;;5073262;28;20028;-77
2022/06/05 01:16:24;;;;;;;24.88;21.40;;;14.80;99.90;;;;;;5071225;28;20486;-77
2022/06/05 01:19:04;;;;;;;29.10;23.10;;;14.80;99.90;;;;;;5051816;28;20021;-77
2022/06/05 01:21:55;;;;;;;28.95;23.25;;;14.80;99.90;;;;;;5052675;28;20024;-76
2022/06/05 01:24:35;;;;;;;29.63;24.02;;;14.80;99.90;;;;;;5051925;28;20025;-77
2022/06/05 01:27:08;;;;;;;27.65;22.38;;;14.80;99.90;;;;;;5053119;28;20378;-78
2022/06/05 01:29:44;;;;;;;28.25;23.15;;;14.70;99.90;;;;;;5052979;28;20482;-73
2022/06/05 01:32:17;;;;;;;28.60;22.45;;;14.70;99.90;;;;;;5052612;28;20029;-73
2022/06/05 01:34:50;;;;;;;23.65;20.40;;;14.70;99.90;;;;;;5051824;28;20425;-78
2022/06/05 01:37:26;;;;;;;28.02;22.27;;;14.60;99.90;;;;;;5051360;28;20033;-78
2022/06/05 01:40:24;;;;;;;28.90;21.95;;;14.60;99.90;;;;;;5052693;28;20075;-73
2022/06/05 01:42:58;;;;;;;25.38;20.05;;;14.50;99.90;;;;;;5053006;28;20398;-73
2022/06/05 01:45:32;;;;;;;30.30;23.50;;;14.60;99.90;;;;;;5051244;28;20032;-73
2022/06/05 01:48:00;;;;;;;29.13;22.88;;;14.60;99.90;;;;;;5052789;28;20025;-73
2022/06/05 01:50:28;;;;;;;27.08;23.80;;;14.40;99.90;;;;;;5052662;28;20029;-78
2022/06/05 01:53:06;;;;;;;28.02;22.23;;;14.40;99.90;;;;;;5051563;28;20116;-74
2022/06/05 01:55:57;;;;;;;28.13;21.73;;;14.30;99.90;;;;;;5052448;28;20017;-78
2022/06/05 01:58:29;;;;;;;22.73;19.45;;;14.30;99.90;;;;;;5052751;28;20048;-77
2022/06/05 02:00:58;;;;;;;23.77;20.60;;;14.30;99.90;;;;;;5055140;28;20029;-77
2022/06/05 02:03:30;;;;;;;25.40;21.25;;;14.20;99.90;;;;;;5056615;28;20025;-73
2022/06/05 02:06:21;;;;;;;26.90;22.57;;;14.10;99.90;;;;;;5071118;28;20041;-73
2022/06/05 02:09:11;;;;;;;32.40;22.58;;;14.10;99.90;;;;;;5076711;28;20403;-74
2022/06/05 02:11:37;;;;;;;29.38;22.42;;;14.00;99.90;;;;;;5056857;28;20417;-73
2022/06/05 02:14:08;;;;;;;30.80;23.73;;;14.00;99.90;;;;;;5056546;28;20021;-77
2022/06/05 02:16:36;;;;;;;31.95;24.15;;;13.90;99.90;;;;;;5068641;28;20021;-78
2022/06/05 02:19:09;;;;;;;29.30;22.92;;;13.80;99.90;;;;;;5054989;28;20470;-78
2022/06/05 02:21:37;;;;;;;30.73;25.20;;;13.80;99.90;;;;;;5055966;28;20025;-77
2022/06/05 02:24:04;;;;;;;31.40;25.40;;;13.80;99.90;;;;;;5056248;28;20025;-74
2022/06/05 02:26:30;;;;;;;31.70;26.15;;;13.80;99.90;;;;;;5055956;28;20028;-77
2022/06/05 02:28:56;;;;;;;27.88;23.10;;;13.70;99.90;;;;;;5056271;28;20021;-77
2022/06/05 02:31:51;;;;;;;31.77;23.88;;;13.70;99.90;;;;;;5055720;28;20163;-73
2022/06/05 02:34:43;;;;;;;36.45;26.55;;;13.80;99.90;;;;;;5056116;28;20029;-73
2022/06/05 02:37:30;;;;;;;32.72;26.08;;;13.70;99.90;;;;;;5056235;28;20075;-77
2022/06/05 02:40:31;;;;;;;33.50;24.85;;;13.70;99.90;;;;;;5054752;28;20025;-77
2022/06/05 02:43:07;;;;;;;34.00;25.95;;;13.70;99.90;;;;;;4994726;28;20026;-73
2022/06/05 02:45:57;;;;;;;31.83;25.70;;;13.70;99.90;;;;;;5047463;28;20556;-73
2022/06/05 02:48:26;;;;;;;31.08;24.42;;;13.60;99.90;;;;;;5054644;28;20025;-74
2022/06/05 02:51:14;;;;;;;28.42;24.15;;;13.60;99.90;;;;;;5062298;28;20052;-73
2022/06/05 02:53:57;;;;;;;34.53;25.73;;;13.60;99.90;;;;;;5075773;28;20425;-78
2022/06/05 02:56:26;;;;;;;28.88;22.05;;;13.60;99.90;;;;;;5075349;28;20032;-73
2022/06/05 02:58:53;;;;;;;31.10;23.30;;;13.60;99.90;;;;;;5075689;28;20055;-73
2022/06/05 03:04:03;;;;;;;30.42;23.85;;;13.60;99.90;;;;;;5075418;28;20073;-74
2022/06/05 03:06:29;;;;;;;30.58;23.77;;;13.50;99.90;;;;;;5055593;28;20044;-78
2022/06/05 03:08:56;;;;;;;31.60;23.48;;;13.50;99.90;;;;;;5055476;28;20029;-73
2022/06/05 03:11:21;;;;;;;28.13;21.42;;;13.40;99.90;;;;;;5053336;28;20119;-78
2022/06/05 03:13:47;;;;;;;26.15;21.05;;;13.40;99.90;;;;;;5055484;28;20025;-74
2022/06/05 03:16:13;;;;;;;23.45;19.45;;;13.40;99.90;;;;;;5056341;28;20454;-73
2022/06/05 03:18:39;;;;;;;22.98;18.83;;;13.40;99.90;;;;;;5075381;28;20539;-77
2022/06/05 03:21:05;;;;;;;30.33;22.27;;;13.40;99.90;;;;;;5073998;28;20036;-77
2022/06/05 03:23:32;;;;;;;27.70;22.23;;;13.50;99.90;;;;;;5075366;28;20033;-78
2022/06/05 03:25:58;;;;;;;35.20;27.02;;;13.60;99.90;;;;;;5073809;28;20035;-73
2022/06/05 03:28:24;;;;;;;28.38;21.42;;;13.70;99.90;;;;;;5075246;28;20096;-77
2022/06/05 03:30:50;;;;;;;23.45;20.35;;;13.80;99.90;;;;;;5073701;28;20410;-77
2022/06/05 03:33:17;;;;;;;27.20;23.02;;;14.00;99.90;;;;;;5075155;28;20024;-74
2022/06/05 03:35:44;;;;;;;25.38;20.35;;;14.20;99.90;;;;;;5075031;28;20114;-74
2022/06/05 03:38:12;;;;;;;24.60;21.48;;;14.30;99.90;;;;;;5075017;28;20107;-78
2022/06/05 03:40:43;;;;;;;26.33;22.27;;;14.50;99.90;;;;;;5074912;28;20029;-73
2022/06/05 03:43:09;;;;;;;29.60;18.85;;;14.60;99.90;;;;;;5075051;28;20031;-78
2022/06/05 03:45:35;;;;;;;20.65;15.68;;;14.40;99.90;;;;;;5074869;28;20095;-78
2022/06/05 03:48:00;;;;;;;22.00;15.55;;;14.30;99.90;;;;;;5074880;28;20440;-78
2022/06/05 03:50:26;;;;;;;19.90;16.23;;;14.30;99.90;;;;;;5074616;28;20095;-78
2022/06/05 03:52:52;;;;;;;17.90;16.02;;;14.30;99.90;;;;;;5074773;28;20025;-73
2022/06/05 03:55:20;;;;;;;19.55;16.35;;;14.50;99.90;;;;;;5074594;28;20021;-73
2022/06/05 03:57:46;;;;;;;20.30;17.40;;;14.70;99.90;;;;;;5073299;28;20025;-79
2022/06/05 04:00:14;;;;;;;21.30;17.67;;;14.80;99.90;;;;;;5074375;28;20062;-78
2022/06/05 04:02:40;;;;;;;19.48;17.30;;;14.80;99.90;;;;;;5073239;28;20040;-78
2022/06/05 04:05:07;;;;;;;23.05;17.50;;;15.10;99.90;;;;;;5063860;28;20486;-79
2022/06/05 04:07:33;;;;;;;18.88;16.45;;;15.20;99.90;;;;;;5054358;28;20033;-78
2022/06/05 04:09:59;;;;;;;18.52;16.05;;;15.40;99.90;;;;;;5054301;28;20036;-79
2022/06/05 04:12:24;;;;;;;17.48;15.55;;;15.40;99.90;;;;;;5054302;28;20468;-77
2022/06/05 04:14:50;;;;;;;17.85;16.00;;;15.60;99.90;;;;;;5054187;28;20024;-78
2022/06/05 04:17:16;;;;;;;17.73;15.80;;;15.80;99.90;;;;;;5064033;28;20389;-78
2022/06/05 04:19:42;;;;;;;16.40;14.65;;;16.00;99.90;;;;;;5074128;28;20025;-78
2022/06/05 04:22:07;;;;;;;18.00;16.10;;;16.10;99.90;;;;;;5074102;28;20025;-73
2022/06/05 04:24:33;;;;;;;18.67;15.65;;;16.30;99.90;;;;;;5074054;28;20032;-74
2022/06/05 04:26:59;;;;;;;18.83;16.80;;;16.50;99.90;;;;;;5073983;28;20105;-78
2022/06/05 04:29:25;;;;;;;17.60;15.75;;;16.60;99.90;;;;;;5073861;28;20448;-78
2022/06/05 04:31:51;;;;;;;17.63;15.85;;;16.80;99.90;;;;;;5072386;28;20040;-78
2022/06/05 04:34:20;;;;;;;17.08;14.95;;;16.90;99.90;;;;;;5072573;28;20059;-78
2022/06/05 04:36:46;;;;;;;17.70;15.77;;;16.80;99.90;;;;;;5072531;28;20051;-73
2022/06/05 04:39:13;;;;;;;17.50;15.63;;;16.80;99.90;;;;;;5073799;28;20021;-78
2022/06/05 04:41:39;;;;;;;18.17;14.70;;;16.70;99.90;;;;;;5072288;28;20152;-78
2022/06/05 04:44:07;;;;;;;18.42;14.73;;;16.70;99.90;;;;;;5073705;28;20031;-79
2022/06/05 04:46:34;;;;;;;16.58;14.90;;;16.80;99.90;;;;;;5072270;28;20029;-78
2022/06/05 04:49:00;;;;;;;17.48;15.73;;;16.90;99.90;;;;;;5073573;28;20023;-79
2022/06/05 04:51:25;;;;;;;16.67;14.98;;;17.00;99.90;;;;;;5073477;28;20032;-78
2022/06/05 04:53:56;;;;;;;14.32;12.95;;;17.10;99.90;;;;;;5072304;28;20191;-79
2022/06/05 04:56:25;;;;;;;14.93;13.32;;;17.20;99.90;;;;;;5073574;28;20020;-79
2022/06/05 04:58:51;;;;;;;16.33;12.15;;;17.30;99.90;;;;;;5072349;28;20020;-73
2022/06/05 05:01:19;;;;;;;15.02;13.40;;;17.20;99.90;;;;;;5073421;28;20102;-73
2022/06/05 05:03:46;;;;;;;19.35;15.35;;;17.20;99.90;;;;;;5073520;28;20537;-79
2022/06/05 05:06:13;;;;;;;14.70;13.20;;;17.00;99.90;;;;;;5054835;28;20489;-79
2022/06/05 05:08:39;;;;;;;15.98;14.05;;;16.90;99.90;;;;;;5052222;28;20478;-74
2022/06/05 05:11:05;;;;;;;16.45;14.48;;;16.50;99.90;;;;;;5053150;28;20065;-79
2022/06/05 05:13:31;;;;;;;17.00;15.00;;;16.20;99.90;;;;;;5053273;28;20036;-74
2022/06/05 05:15:57;;;;;;;18.17;14.45;;;16.00;99.90;;;;;;5053203;28;20021;-74
2022/06/05 05:18:23;;;;;;;15.65;14.05;;;16.00;99.90;;;;;;5072470;28;20103;-74
2022/06/05 05:20:49;;;;;;;16.30;14.70;;;15.90;99.90;;;;;;5073171;28;20036;-78
2022/06/05 05:23:15;;;;;;;16.08;14.48;;;15.90;99.90;;;;;;5073341;28;20023;-74
2022/06/05 05:25:41;;;;;;;20.55;15.93;;;16.00;99.90;;;;;;5073140;28;20086;-73
2022/06/05 05:28:07;;;;;;;15.55;13.55;;;16.10;99.90;;;;;;5073124;28;20020;-74
2022/06/05 05:30:33;;;;;;;16.67;14.88;;;16.10;99.90;;;;;;5073058;28;20359;-73
2022/06/05 05:32:59;;;;;;;16.42;14.68;;;16.20;99.90;;;;;;5073010;28;20420;-79
2022/06/05 05:35:25;;;;;;;17.50;14.38;;;16.30;99.90;;;;;;5071411;28;20021;-73
2022/06/05 05:37:50;;;;;;;18.35;13.90;;;16.50;99.90;;;;;;5072943;28;20028;-74
2022/06/05 05:43:01;;;;;;;18.23;14.02;;;16.90;99.90;;;;;;5073312;28;20098;-79
2022/06/05 05:45:27;;;;;;;14.88;13.20;;;17.20;99.90;;;;;;5073045;28;20056;-73
2022/06/05 05:47:52;;;;;;;16.45;14.85;;;17.30;99.90;;;;;;5072871;28;20017;-74
2022/06/05 05:50:18;;;;;;;16.00;13.65;;;17.40;99.90;;;;;;5071688;28;20557;-74
2022/06/05 05:52:45;;;;;;;14.68;13.23;;;17.40;99.90;;;;;;5072977;28;20539;-80
2022/06/05 05:55:17;;;;;;;15.25;13.73;;;17.50;99.90;;;;;;5072905;28;20035;-74
2022/06/05 05:57:43;;;;;;;15.68;12.70;;;17.40;99.90;;;;;;5072880;28;20493;-73
2022/06/05 06:00:12;;;;;;;15.38;13.57;;;17.50;99.90;;;;;;5071624;28;20778;-74
2022/06/05 06:02:38;;;;;;;14.10;12.55;;;17.70;99.90;;;;;;5072549;28;20033;-80
2022/06/05 06:05:06;;;;;;;14.38;12.90;;;17.90;99.90;;;;;;5063141;28;20120;-74
2022/06/05 06:07:31;;;;;;;14.40;12.50;;;17.80;99.90;;;;;;5051317;28;20398;-80
2022/06/05 06:09:57;;;;;;;13.25;11.93;;;17.80;99.90;;;;;;5051454;28;20029;-74
2022/06/05 06:12:24;;;;;;;14.02;11.93;;;18.00;99.90;;;;;;5052592;28;20037;-79
2022/06/05 06:14:50;;;;;;;13.13;11.73;;;18.20;99.90;;;;;;5052831;28;20453;-74
2022/06/05 06:17:16;;;;;;;13.77;12.50;;;18.30;99.90;;;;;;5062997;28;20017;-79
2022/06/05 06:19:42;;;;;;;14.27;12.77;;;18.50;99.90;;;;;;5072664;28;20031;-74
2022/06/05 06:22:08;;;;;;;13.68;11.77;;;18.60;99.90;;;;;;5072582;28;20063;-79
2022/06/05 06:24:34;;;;;;;13.40;12.10;;;18.70;99.90;;;;;;5072604;28;20420;-79
2022/06/05 06:26:59;;;;;;;14.27;12.77;;;18.80;99.90;;;;;;5071294;28;20024;-74
2022/06/05 06:29:25;;;;;;;14.75;11.85;;;19.00;99.90;;;;;;5072050;28;20051;-80
2022/06/05 06:31:51;;;;;;;13.23;11.60;;;19.10;97.10;;;;;;5070889;28;20402;-80
2022/06/05 06:34:17;;;;;;;14.55;11.82;;;19.10;96.10;;;;;;5062274;28;20482;-79
2022/06/05 06:36:42;;;;;;;12.35;11.02;;;19.20;94.50;;;;;;5052385;28;20058;-80
2022/06/05 06:39:08;;;;;;;11.95;10.73;;;19.30;95.90;;;;;;5052280;28;20025;-79
2022/06/05 06:41:34;;;;;;;12.90;11.60;;;19.40;93.90;;;;;;5054891;28;20039;-79
2022/06/05 06:44:01;;;;;;;12.57;11.38;;;19.60;93.50;;;;;;5059664;28;20017;-80
2022/06/05 06:46:27;;;;;;;12.98;11.05;;;19.70;94.30;;;;;;5062506;28;20027;-80
2022/06/05 06:48:52;;;;;;;12.75;11.52;;;19.90;91.70;;;;;;5075862;28;20021;-80
2022/06/05 06:51:18;;;;;;;12.57;11.35;;;20.10;91.60;;;;;;5074428;28;20115;-77
2022/06/05 06:53:44;;;;;;;11.10;9.75;;;20.30;89.40;;;;;;5068338;28;20102;-79
2022/06/05 06:56:19;;;;;;;11.60;9.65;;;20.50;88.50;;;;;;5058085;28;20033;-80
2022/06/05 06:58:45;;;;;;;9.93;9.00;;;20.60;80.80;;;;;;5065248;28;20021;-77
2022/06/05 07:01:12;;;;;;;11.85;9.18;;;20.60;78.30;;;;;;5063862;28;20047;-77
2022/06/05 07:03:38;;;;;;;9.95;9.05;;;20.80;75.80;;;;;;5067166;28;20032;-71
2022/06/05 07:06:10;;;;;;;9.75;8.80;;;21.00;76.00;;;;;;5058187;28;20083;-76
2022/06/05 07:08:36;;;;;;;8.37;7.57;;;21.10;79.40;;;;;;5056647;28;20099;-75
2022/06/05 07:11:05;;;;;;;10.85;8.00;;;21.10;70.40;;;;;;5057124;28;20386;-72
2022/06/05 07:13:31;;;;;;;9.45;8.48;;;21.10;70.50;;;;;;5055466;28;20032;-71
2022/06/05 07:15:56;;;;;;;8.48;7.65;;;21.10;74.60;;;;;;5066600;28;20041;-74
2022/06/05 07:18:22;;;;;;;8.43;7.63;;;21.00;72.90;;;;;;5064118;28;20025;-74
2022/06/05 07:20:48;;;;;;;7.80;6.93;;;21.10;73.30;;;;;;5052917;28;20043;-77
2022/06/05 07:23:14;;;;;;;7.13;6.47;;;20.90;66.80;;;;;;5063167;28;20107;-79
2022/06/05 07:25:51;;;;;;;6.63;6.03;;;21.10;68.20;;;;;;5061236;28;20497;-79
2022/06/05 07:28:19;;;;;;;6.03;5.45;;;21.20;63.80;;;;;;5065044;28;20485;-80
2022/06/05 07:30:49;;;;;;;5.97;5.47;;;21.30;64.40;;;;;;5056322;28;20091;-78
2022/06/05 07:33:16;;;;;;;6.07;5.68;;;21.50;63.30;;;;;;5063423;28;20037;-77
2022/06/05 07:35:42;;;;;;;6.65;6.05;;;21.40;60.70;;;;;;5072896;28;20048;-76
2022/06/05 07:38:09;;;;;;;7.40;6.13;;;21.40;63.40;;;;;;5053170;28;20055;-74
2022/06/05 07:40:40;;;;;;;6.50;5.90;;;21.30;61.90;;;;;;5059210;28;20104;-74
2022/06/05 07:43:07;;;;;;;6.25;5.65;;;21.40;62.00;;;;;;5077127;28;20067;-74
2022/06/05 07:45:32;;;;;;;6.22;5.63;;;21.40;60.80;;;;;;5052820;28;20025;-75
2022/06/05 07:47:58;;;;;;;6.07;5.57;;;21.50;62.50;;;;;;5052709;28;20414;-74
2022/06/05 07:50:24;;;;;;;5.68;5.18;;;21.50;61.00;;;;;;5068136;28;20086;-72
2022/06/05 07:55:33;;;;;;;8.38;6.50;;;21.50;60.70;;;;;;5062717;28;20067;-76
2022/06/05 07:58:00;;;;;;;5.93;5.43;;;21.70;62.30;;;;;;5053417;28;20421;-75
2022/06/05 08:00:25;;;;;;;5.55;5.13;;;21.90;62.40;;;;;;5063990;28;20028;-75
2022/06/05 08:02:51;;;;;;;6.15;5.65;;;22.10;62.00;;;;;;5053060;28;20029;-76
2022/06/05 08:05:17;;;;;;;5.57;5.18;;;22.20;60.90;;;;;;5061775;28;20029;-77
2022/06/05 08:07:43;;;;;;;6.53;5.93;;;22.30;59.70;;;;;;5055746;28;20017;-77
2022/06/05 08:10:09;;;;;;;6.28;5.68;;;22.30;59.30;;;;;;5053706;28;20398;-77
2022/06/05 08:12:35;;;;;;;6.57;6.00;;;22.40;60.70;;;;;;5062926;28;20696;-78
2022/06/05 08:15:09;;;;;;;7.03;6.05;;;22.60;63.00;;;;;;5051711;28;20025;-74
2022/06/05 08:17:35;;;;;;;6.55;5.93;;;22.70;61.60;;;;;;5056382;28;20051;-74
2022/06/05 08:20:01;;;;;;;7.95;5.22;;;22.80;60.80;;;;;;5051460;28;20024;-75
2022/06/05 08:22:27;;;;;;;6.25;5.68;;;22.90;60.30;;;;;;5062058;28;20025;-78
2022/06/05 08:24:53;;;;;;;5.95;5.55;;;22.90;58.20;;;;;;5067469;28;20418;-76
2022/06/05 08:27:23;;;;;;;6.82;4.60;;;22.80;58.20;;;;;;5052864;28;20036;-79
2022/06/05 08:29:48;;;;;;;6.07;5.43;;;22.70;56.10;;;;;;5064851;28;20467;-79
2022/06/05 08:32:15;;;;;;;5.43;4.90;;;22.50;55.60;;;;;;5053685;28;20051;-78
2022/06/05 08:34:42;;;;;;;6.20;5.65;;;22.60;58.00;;;;;;5067680;28;20083;-78
2022/06/05 08:42:43;;;;;;;6.65;5.95;;;22.90;57.10;;;;;;5073860;28;20058;-79
2022/06/05 08:45:49;;;;;;;5.83;5.33;;;23.00;59.30;;;;;;5073417;28;20012;-80
2022/06/05 08:48:25;;;;;;;6.03;5.45;;;22.90;55.70;;;;;;5018543;28;20036;-77
2022/06/05 08:50:56;;;;;;;5.72;4.95;;;22.90;57.80;;;;;;5073247;28;20397;-76
2022/06/05 08:53:47;;;;;;;6.07;5.57;;;22.90;56.10;;;;;;5073367;28;20489;-76
2022/06/05 08:56:22;;;;;;;6.25;5.50;;;22.70;56.20;;;;;;5073176;28;20392;-76
2022/06/05 08:58:55;;;;;;;6.00;5.22;;;22.70;57.50;;;;;;5073320;28;20017;-77
2022/06/05 09:01:40;;;;;;;6.38;5.50;;;22.80;58.20;;;;;;5071851;28;20024;-76
2022/06/05 09:04:44;;;;;;;9.40;5.47;;;22.90;57.20;;;;;;5069204;28;20470;-76
2022/06/05 09:07:15;;;;;;;6.70;6.10;;;22.90;56.30;;;;;;5061724;28;20094;-76
2022/06/05 09:09:55;;;;;;;8.13;5.97;;;22.80;58.60;;;;;;5058164;28;20421;-76
2022/06/05 09:12:30;;;;;;;6.53;5.95;;;22.90;58.40;;;;;;5056056;28;20037;-77
2022/06/05 09:15:05;;;;;;;6.75;5.70;;;23.30;59.10;;;;;;5052663;28;20047;-76
2022/06/05 09:17:31;;;;;;;5.05;4.50;;;23.40;59.30;;;;;;5064377;28;20519;-76
2022/06/05 09:19:58;;;;;;;5.80;5.35;;;23.20;54.50;;;;;;5063106;28;20017;-76
2022/06/05 09:22:36;;;;;;;8.75;5.55;;;23.40;56.20;;;;;;5077914;28;20055;-76
2022/06/05 09:25:06;;;;;;;5.20;4.72;;;23.70;57.10;;;;;;5050543;28;20545;-76
2022/06/05 09:27:50;;;;;;;6.15;5.55;;;23.80;53.60;;;;;;5050899;28;20044;-76
2022/06/05 09:30:45;;;;;;;5.80;5.30;;;23.80;53.70;;;;;;5050526;28;20029;-76
2022/06/05 09:33:19;;;;;;;5.45;4.32;;;24.00;55.00;;;;;;5050963;28;20128;-77
2022/06/05 09:35:50;;;;;;;5.38;4.97;;;24.10;52.20;;;;;;5054050;28;20510;-77
2022/06/05 09:38:15;;;;;;;5.53;5.00;;;24.20;51.60;;;;;;5050359;28;20029;-82
2022/06/05 09:41:01;;;;;;;5.07;4.60;;;23.80;54.40;;;;;;5051762;28;20517;-81
2022/06/05 09:43:50;;;;;;;5.35;4.80;;;23.80;55.10;;;;;;5063165;28;20060;-76
2022/06/05 09:46:44;;;;;;;5.47;5.00;;;23.90;54.60;;;;;;5054109;28;20111;-75
2022/06/05 09:49:21;;;;;;;6.85;5.28;;;23.70;52.80;;;;;;5050676;28;20021;-80
2022/06/05 09:51:46;;;;;;;5.40;4.55;;;24.00;52.00;;;;;;5050804;28;20246;-80
2022/06/05 09:54:19;;;;;;;5.55;5.15;;;24.10;53.00;;;;;;5056069;28;20120;-78
2022/06/05 10:00:00;;;;;;;5.63;5.22;;;24.00;52.50;;;;;;5051779;28;20058;-75
2022/06/05 10:02:27;;;;;;;5.20;4.80;;;24.20;53.00;;;;;;5051375;28;20033;-78
2022/06/05 10:04:53;;;;;;;6.10;5.32;;;24.10;53.70;;;;;;5056173;28;20060;-75
2022/06/05 10:07:33;;;;;;;5.40;4.97;;;24.00;53.20;;;;;;5053224;28;20029;-80
2022/06/05 10:10:07;;;;;;;6.72;5.38;;;24.20;50.50;;;;;;5050182;28;20142;-78
2022/06/05 10:12:54;;;;;;;4.93;4.53;;;24.30;51.30;;;;;;5051591;28;20122;-78
2022/06/05 10:15:27;;;;;;;5.68;5.18;;;24.40;49.00;;;;;;5051219;28;20032;-80
2022/06/05 10:17:57;;;;;;;5.72;5.32;;;24.20;52.70;;;;;;5058268;28;20037;-80
2022/06/05 10:20:39;;;;;;;13.50;5.72;;;24.10;54.80;;;;;;5049539;28;20025;-81
2022/06/05 10:23:20;;;;;;;5.97;5.33;;;24.20;54.10;;;;;;5057015;28;20044;-82
2022/06/05 10:25:52;;;;;;;4.57;4.28;;;24.40;52.50;;;;;;5060566;28;20028;-76
2022/06/05 10:28:21;;;;;;;4.85;3.92;;;24.70;53.20;;;;;;5058644;28;20049;-77
2022/06/05 10:31:03;;;;;;;5.13;4.72;;;24.60;49.20;;;;;;5062095;28;20074;-77
2022/06/05 10:34:07;;;;;;;5.63;5.15;;;24.70;49.30;;;;;;5057356;28;20049;-77
2022/06/05 10:37:03;;;;;;;6.40;4.78;;;24.40;52.00;;;;;;5059935;28;20033;-79
2022/06/05 10:39:40;;;;;;;4.72;4.43;;;24.20;52.20;;;;;;5054421;28;20087;-77
2022/06/05 10:42:26;;;;;;;4.35;3.95;;;24.40;52.20;;;;;;5059435;28;20116;-78
2022/06/05 10:45:14;;;;;;;4.88;4.57;;;24.10;52.70;;;;;;5066732;28;20039;-78
2022/06/05 10:48:27;;;;;;;6.05;4.15;;;23.30;51.50;;;;;;5052952;28;20514;-80
2022/06/05 10:50:59;;;;;;;;;;;23.20;51.20;;;;;;5023643;28;20022;-78
2022/06/05 10:53:30;;;;;;;4.32;4.03;;;22.90;50.50;;;;;;5035635;28;19909;-77
2022/06/05 10:56:18;;;;;;;5.38;4.57;;;23.30;51.30;;;;;;5045323;28;20045;-77
2022/06/05 10:58:58;;;;;;;4.43;4.10;;;23.80;51.10;;;;;;5054250;28;20051;-77
2022/06/05 11:01:50;;;;;;;6.57;4.88;;;23.80;51.10;;;;;;5070706;28;20433;-77
2022/06/05 11:04:46;;;;;;;4.80;4.40;;;23.80;48.90;;;;;;5075004;28;20086;-76
2022/06/05 11:07:50;;;;;;;5.72;3.90;;;23.50;49.20;;;;;;5073956;28;20127;-77
2022/06/05 11:13:39;;;;;;;4.68;4.28;;;23.40;49.20;;;;;;5074176;28;20064;-77
2022/06/05 11:13:42;;;;;;;4.40;4.10;;;23.50;49.80;;;;;;5075064;28;20028;-77
2022/06/05 11:16:28;;;;;;;4.50;4.13;;;23.90;50.90;;;;;;5070894;28;20159;-77
2022/06/05 11:19:08;;;;;;;5.15;4.65;;;24.10;49.30;;;;;;5055201;28;20045;-76
2022/06/05 11:21:34;;;;;;;4.50;4.10;;;24.20;49.60;;;;;;5053603;28;20503;-77
2022/06/05 11:24:01;;;;;;;7.35;3.90;;;24.30;49.20;;;;;;5053558;28;20426;-77
2022/06/05 11:26:53;;;;;;;4.63;4.22;;;24.50;49.20;;;;;;5053090;28;20021;-78
2022/06/05 11:29:57;;;;;;;4.70;4.30;;;24.50;48.10;;;;;;5060096;28;20016;-78
2022/06/05 11:32:40;;;;;;;4.25;4.00;;;24.80;46.30;;;;;;5028821;28;20037;-78
2022/06/05 11:35:14;;;;;;;;;;;25.20;47.30;;;;;;5006632;28;20044;-78
2022/06/05 11:37:53;;;;;;;4.43;4.13;;;25.40;45.20;;;;;;5066993;28;19927;-77
2022/06/05 11:40:42;;;;;;;4.80;4.40;;;25.60;46.10;;;;;;5073261;28;20028;-81
2022/06/05 11:43:07;;;;;;;7.22;4.40;;;25.00;48.50;;;;;;5073483;28;20046;-84
2022/06/05 11:45:53;;;;;;;4.50;4.20;;;24.60;50.90;;;;;;5073063;28;20025;-80
2022/06/05 11:48:22;;;;;;;4.93;4.30;;;24.60;50.10;;;;;;5074748;28;20021;-80
2022/06/05 11:51:00;;;;;;;7.90;5.15;;;24.80;48.80;;;;;;5072864;28;20028;-84
2022/06/05 11:53:45;;;;;;;4.88;4.57;;;25.00;50.00;;;;;;5072354;28;20506;-84
2022/06/05 11:56:23;;;;;;;5.13;4.43;;;25.20;48.40;;;;;;5073168;28;20470;-82
2022/06/05 11:59:10;;;;;;;5.38;4.57;;;25.30;48.80;;;;;;5074368;28;20379;-81
2022/06/05 12:01:44;;;;;;;6.63;4.50;;;25.20;49.60;;;;;;5072979;28;20036;-79
2022/06/05 12:04:43;;;;;;;4.88;4.50;;;25.00;49.90;;;;;;5069817;28;20033;-79
2022/06/05 12:07:13;;;;;;;4.70;4.40;;;25.00;48.80;;;;;;5069478;28;20040;-80
2022/06/05 12:09:52;;;;;;;4.80;4.47;;;24.90;48.10;;;;;;5052927;28;20020;-78
2022/06/05 12:12:24;;;;;;;9.55;4.65;;;24.60;48.00;;;;;;5069252;28;20067;-78
2022/06/05 12:15:15;;;;;;;4.63;4.30;;;24.70;48.90;;;;;;5054022;28;20051;-78
2022/06/05 12:18:02;;;;;;;4.55;4.10;;;25.20;48.20;;;;;;5069739;28;20157;-78
2022/06/05 12:21:00;;;;;;;4.88;4.03;;;25.30;47.30;;;;;;5073960;28;20024;-78
2022/06/05 12:23:26;;;;;;;4.50;4.05;;;25.60;48.20;;;;;;5073573;28;20032;-83
2022/06/05 12:26:02;;;;;;;5.30;4.80;;;25.70;47.00;;;;;;5073836;28;20032;-83
2022/06/05 12:28:49;;;;;;;5.07;4.40;;;25.60;46.80;;;;;;5055238;28;20079;-82
2022/06/05 12:31:17;;;;;;;4.38;4.03;;;25.80;47.70;;;;;;5052421;28;20175;-85
2022/06/05 12:33:56;;;;;;;4.85;4.55;;;24.90;47.10;;;;;;5053604;28;20478;-84
2022/06/05 12:36:26;;;;;;;4.68;4.20;;;24.40;47.70;;;;;;5053790;28;20043;-82
2022/06/05 12:39:04;;;;;;;4.68;3.83;;;24.30;47.70;;;;;;5053329;28;20021;-77
2022/06/05 12:42:08;;;;;;;5.53;3.55;;;24.60;48.20;;;;;;5052256;28;20028;-77
2022/06/05 12:45:05;;;;;;;5.38;4.60;;;24.80;46.10;;;;;;5052239;28;20112;-82
2022/06/05 12:47:58;;;;;;;4.90;4.50;;;25.10;46.00;;;;;;5031017;28;20116;-85
2022/06/05 12:50:51;;;;;;;4.93;4.30;;;25.30;45.40;;;;;;5053415;28;20024;-85
2022/06/05 12:53:46;;;;;;;5.65;3.92;;;25.40;48.70;;;;;;5053424;28;20482;-84
2022/06/05 12:56:33;;;;;;;4.28;3.97;;;25.20;46.90;;;;;;5053447;28;20024;-82
2022/06/05 12:59:12;;;;;;;4.38;3.85;;;25.20;47.20;;;;;;5053357;28;20021;-84
2022/06/05 13:01:50;;;;;;;4.20;3.83;;;25.00;46.50;;;;;;5051966;28;20390;-78
2022/06/05 13:04:39;;;;;;;11.23;5.07;;;24.80;45.60;;;;;;5056793;28;20027;-77
2022/06/05 13:07:20;;;;;;;4.10;3.80;;;25.00;45.60;;;;;;5073869;28;20513;-77
2022/06/05 13:09:51;;;;;;;4.47;4.07;;;25.20;46.20;;;;;;5070952;28;20472;-83
2022/06/05 13:12:29;;;;;;;4.60;3.63;;;25.20;45.80;;;;;;5072639;28;20036;-77
2022/06/05 13:15:23;;;;;;;4.45;3.78;;;25.30;46.80;;;;;;5072060;28;20787;-78
2022/06/05 13:18:28;;;;;;;4.10;3.80;;;25.50;46.70;;;;;;5068341;28;20071;-83
2022/06/05 13:21:08;;;;;;;4.60;4.30;;;25.50;47.60;;;;;;5071132;28;20033;-82
2022/06/05 13:23:38;;;;;;;5.05;4.25;;;25.40;47.80;;;;;;5072871;28;20104;-82
2022/06/05 13:26:19;;;;;;;4.43;4.13;;;25.30;47.60;;;;;;5063055;28;20052;-78
2022/06/05 13:29:22;;;;;;;4.43;4.03;;;25.20;49.40;;;;;;5051566;28;20036;-78
2022/06/05 13:32:05;;;;;;;4.95;4.25;;;24.90;47.70;;;;;;5065494;28;20137;-77